sensor_id;sensor_type;location;lat;lon;timestamp;P1;durP1;ratioP1;P2;durP2;ratioP2
12212;SDS011;6169;44.158;22.788;2023-08-06T00:02:13;3.10;;;0.85;;
12212;SDS011;6169;44.158;22.788;2023-08-06T00:07:15;1.30;;;0.20;;
12212;SDS011;6169;44.158;22.788;2023-08-06T00:12:18;1.20;;;0.50;;
12212;SDS011;6169;44.158;22.788;2023-08-06T00:17:20;2.67;;;0.88;;
12212;SDS011;6169;44.158;22.788;2023-08-06T00:22:23;2.88;;;1.05;;
12212;SDS011;6169;44.158;22.788;2023-08-06T00:27:26;1.70;;;0.60;;
12212;SDS011;6169;44.158;22.788;2023-08-06T00:32:29;1.23;;;0.60;;
12212;SDS011;6169;44.158;22.788;2023-08-06T00:37:31;1.30;;;0.60;;
12212;SDS011;6169;44.158;22.788;2023-08-06T00:42:34;3.53;;;0.75;;
12212;SDS011;6169;44.158;22.788;2023-08-06T00:47:37;3.58;;;0.77;;
12212;SDS011;6169;44.158;22.788;2023-08-06T00:52:39;2.78;;;0.55;;
12212;SDS011;6169;44.158;22.788;2023-08-06T00:57:43;4.80;;;0.50;;
12212;SDS011;6169;44.158;22.788;2023-08-06T01:02:46;3.50;;;0.60;;
12212;SDS011;6169;44.158;22.788;2023-08-06T01:07:51;4.25;;;1.02;;
12212;SDS011;6169;44.158;22.788;2023-08-06T01:13:16;2.55;;;1.10;;
12212;SDS011;6169;44.158;22.788;2023-08-06T01:18:25;0.77;;;0.68;;
12212;SDS011;6169;44.158;22.788;2023-08-06T01:23:29;1.27;;;0.68;;
12212;SDS011;6169;44.158;22.788;2023-08-06T01:28:33;1.80;;;0.50;;
12212;SDS011;6169;44.158;22.788;2023-08-06T01:33:46;1.42;;;0.60;;
12212;SDS011;6169;44.158;22.788;2023-08-06T01:38:52;2.38;;;0.73;;
12212;SDS011;6169;44.158;22.788;2023-08-06T01:43:54;1.75;;;0.45;;
12212;SDS011;6169;44.158;22.788;2023-08-06T01:48:57;3.78;;;0.65;;
12212;SDS011;6169;44.158;22.788;2023-08-06T01:54:00;1.98;;;0.65;;
12212;SDS011;6169;44.158;22.788;2023-08-06T01:59:03;1.55;;;0.40;;
12212;SDS011;6169;44.158;22.788;2023-08-06T02:04:05;0.70;;;0.17;;
12212;SDS011;6169;44.158;22.788;2023-08-06T02:09:08;1.58;;;0.90;;
12212;SDS011;6169;44.158;22.788;2023-08-06T02:14:10;2.10;;;0.57;;
12212;SDS011;6169;44.158;22.788;2023-08-06T02:19:13;1.15;;;0.30;;
12212;SDS011;6169;44.158;22.788;2023-08-06T02:24:16;3.08;;;0.55;;
12212;SDS011;6169;44.158;22.788;2023-08-06T02:29:19;1.13;;;0.20;;
12212;SDS011;6169;44.158;22.788;2023-08-06T02:34:21;0.30;;;0.28;;
12212;SDS011;6169;44.158;22.788;2023-08-06T02:39:24;1.25;;;0.32;;
12212;SDS011;6169;44.158;22.788;2023-08-06T02:44:27;2.00;;;0.50;;
12212;SDS011;6169;44.158;22.788;2023-08-06T02:49:29;0.30;;;0.30;;
12212;SDS011;6169;44.158;22.788;2023-08-06T02:54:32;1.63;;;0.30;;
12212;SDS011;6169;44.158;22.788;2023-08-06T02:59:35;0.35;;;0.20;;
12212;SDS011;6169;44.158;22.788;2023-08-06T03:04:37;0.38;;;0.30;;
12212;SDS011;6169;44.158;22.788;2023-08-06T03:09:40;1.00;;;0.80;;
12212;SDS011;6169;44.158;22.788;2023-08-06T03:14:42;5.47;;;2.35;;
12212;SDS011;6169;44.158;22.788;2023-08-06T03:19:45;1.77;;;0.82;;
12212;SDS011;6169;44.158;22.788;2023-08-06T03:24:51;2.40;;;0.80;;
12212;SDS011;6169;44.158;22.788;2023-08-06T03:29:53;4.72;;;1.00;;
12212;SDS011;6169;44.158;22.788;2023-08-06T03:34:55;1.88;;;1.33;;
12212;SDS011;6169;44.158;22.788;2023-08-06T03:39:59;2.92;;;0.80;;
12212;SDS011;6169;44.158;22.788;2023-08-06T03:45:01;1.92;;;1.67;;
12212;SDS011;6169;44.158;22.788;2023-08-06T03:50:04;3.38;;;0.98;;
12212;SDS011;6169;44.158;22.788;2023-08-06T03:55:08;1.20;;;0.82;;
12212;SDS011;6169;44.158;22.788;2023-08-06T04:00:11;1.50;;;0.88;;
12212;SDS011;6169;44.158;22.788;2023-08-06T04:05:14;2.20;;;1.10;;
12212;SDS011;6169;44.158;22.788;2023-08-06T04:10:18;3.78;;;1.02;;
12212;SDS011;6169;44.158;22.788;2023-08-06T04:15:21;1.80;;;0.95;;
12212;SDS011;6169;44.158;22.788;2023-08-06T04:20:23;2.30;;;1.25;;
12212;SDS011;6169;44.158;22.788;2023-08-06T04:25:27;1.55;;;1.08;;
12212;SDS011;6169;44.158;22.788;2023-08-06T04:30:29;2.45;;;1.00;;
12212;SDS011;6169;44.158;22.788;2023-08-06T04:35:31;2.55;;;0.82;;
12212;SDS011;6169;44.158;22.788;2023-08-06T04:40:35;1.85;;;1.02;;
12212;SDS011;6169;44.158;22.788;2023-08-06T04:45:37;3.20;;;0.98;;
12212;SDS011;6169;44.158;22.788;2023-08-06T04:50:42;1.75;;;1.15;;
12212;SDS011;6169;44.158;22.788;2023-08-06T04:55:47;2.83;;;1.35;;
12212;SDS011;6169;44.158;22.788;2023-08-06T05:00:49;2.03;;;1.13;;
12212;SDS011;6169;44.158;22.788;2023-08-06T05:05:51;1.33;;;1.10;;
12212;SDS011;6169;44.158;22.788;2023-08-06T05:10:55;2.13;;;1.08;;
12212;SDS011;6169;44.158;22.788;2023-08-06T05:15:57;2.40;;;0.88;;
12212;SDS011;6169;44.158;22.788;2023-08-06T05:20:59;2.67;;;1.30;;
12212;SDS011;6169;44.158;22.788;2023-08-06T05:26:03;0.95;;;0.90;;
12212;SDS011;6169;44.158;22.788;2023-08-06T05:31:05;3.58;;;1.08;;
12212;SDS011;6169;44.158;22.788;2023-08-06T05:36:08;1.23;;;0.95;;
12212;SDS011;6169;44.158;22.788;2023-08-06T05:41:11;2.88;;;1.33;;
12212;SDS011;6169;44.158;22.788;2023-08-06T05:46:13;1.88;;;1.33;;
12212;SDS011;6169;44.158;22.788;2023-08-06T05:51:16;1.67;;;1.50;;
12212;SDS011;6169;44.158;22.788;2023-08-06T05:56:21;2.72;;;1.27;;
12212;SDS011;6169;44.158;22.788;2023-08-06T06:01:23;3.92;;;1.88;;
12212;SDS011;6169;44.158;22.788;2023-08-06T06:06:26;3.70;;;1.60;;
12212;SDS011;6169;44.158;22.788;2023-08-06T06:11:29;3.13;;;1.75;;
12212;SDS011;6169;44.158;22.788;2023-08-06T06:16:31;2.47;;;1.35;;
12212;SDS011;6169;44.158;22.788;2023-08-06T06:21:34;1.77;;;1.52;;
12212;SDS011;6169;44.158;22.788;2023-08-06T06:26:38;2.50;;;1.50;;
12212;SDS011;6169;44.158;22.788;2023-08-06T06:31:40;1.52;;;1.42;;
12212;SDS011;6169;44.158;22.788;2023-08-06T06:36:43;18.17;;;1.55;;
12212;SDS011;6169;44.158;22.788;2023-08-06T06:41:46;3.13;;;1.52;;
12212;SDS011;6169;44.158;22.788;2023-08-06T06:46:48;4.75;;;2.05;;
12212;SDS011;6169;44.158;22.788;2023-08-06T06:51:51;2.60;;;1.27;;
12212;SDS011;6169;44.158;22.788;2023-08-06T06:56:54;2.92;;;2.20;;
12212;SDS011;6169;44.158;22.788;2023-08-06T07:01:56;5.80;;;2.72;;
12212;SDS011;6169;44.158;22.788;2023-08-06T07:06:59;4.10;;;2.40;;
12212;SDS011;6169;44.158;22.788;2023-08-06T07:12:03;2.00;;;1.80;;
12212;SDS011;6169;44.158;22.788;2023-08-06T07:17:05;4.75;;;2.20;;
12212;SDS011;6169;44.158;22.788;2023-08-06T07:22:08;4.35;;;1.83;;
12212;SDS011;6169;44.158;22.788;2023-08-06T07:27:11;1.55;;;1.45;;
12212;SDS011;6169;44.158;22.788;2023-08-06T07:32:13;1.83;;;1.25;;
12212;SDS011;6169;44.158;22.788;2023-08-06T07:37:17;1.77;;;1.10;;
12212;SDS011;6169;44.158;22.788;2023-08-06T07:42:21;1.35;;;0.98;;
12212;SDS011;6169;44.158;22.788;2023-08-06T07:47:23;1.15;;;0.77;;
12212;SDS011;6169;44.158;22.788;2023-08-06T07:52:26;1.58;;;1.27;;
12212;SDS011;6169;44.158;22.788;2023-08-06T07:57:30;1.02;;;0.77;;
12212;SDS011;6169;44.158;22.788;2023-08-06T08:02:32;2.40;;;0.70;;
12212;SDS011;6169;44.158;22.788;2023-08-06T08:07:34;1.83;;;0.98;;
12212;SDS011;6169;44.158;22.788;2023-08-06T08:12:38;0.70;;;0.70;;
12212;SDS011;6169;44.158;22.788;2023-08-06T08:17:40;3.55;;;1.67;;
12212;SDS011;6169;44.158;22.788;2023-08-06T08:22:42;3.17;;;1.25;;
12212;SDS011;6169;44.158;22.788;2023-08-06T08:27:46;3.30;;;1.35;;
12212;SDS011;6169;44.158;22.788;2023-08-06T08:32:49;2.10;;;0.52;;
12212;SDS011;6169;44.158;22.788;2023-08-06T08:37:51;0.80;;;0.80;;
12212;SDS011;6169;44.158;22.788;2023-08-06T08:42:55;2.92;;;2.17;;
12212;SDS011;6169;44.158;22.788;2023-08-06T08:47:58;1.13;;;1.02;;
12212;SDS011;6169;44.158;22.788;2023-08-06T08:53:02;3.22;;;1.00;;
12212;SDS011;6169;44.158;22.788;2023-08-06T08:58:06;1.38;;;1.27;;
12212;SDS011;6169;44.158;22.788;2023-08-06T09:03:09;1.58;;;1.13;;
12212;SDS011;6169;44.158;22.788;2023-08-06T09:08:14;0.82;;;0.82;;
12212;SDS011;6169;44.158;22.788;2023-08-06T09:13:21;1.58;;;1.48;;
12212;SDS011;6169;44.158;22.788;2023-08-06T09:18:26;4.60;;;1.27;;
12212;SDS011;6169;44.158;22.788;2023-08-06T09:23:31;2.35;;;1.00;;
12212;SDS011;6169;44.158;22.788;2023-08-06T09:28:38;1.52;;;0.98;;
12212;SDS011;6169;44.158;22.788;2023-08-06T09:33:43;1.10;;;1.00;;
12212;SDS011;6169;44.158;22.788;2023-08-06T09:38:48;2.65;;;1.70;;
12212;SDS011;6169;44.158;22.788;2023-08-06T09:43:52;2.10;;;1.80;;
12212;SDS011;6169;44.158;22.788;2023-08-06T09:48:54;1.95;;;1.85;;
12212;SDS011;6169;44.158;22.788;2023-08-06T09:53:57;2.97;;;1.70;;
12212;SDS011;6169;44.158;22.788;2023-08-06T09:59:04;1.92;;;1.60;;
12212;SDS011;6169;44.158;22.788;2023-08-06T10:04:07;1.85;;;1.70;;
12212;SDS011;6169;44.158;22.788;2023-08-06T10:09:11;3.63;;;3.28;;
12212;SDS011;6169;44.158;22.788;2023-08-06T10:14:16;3.10;;;2.80;;
12212;SDS011;6169;44.158;22.788;2023-08-06T10:19:23;6.32;;;4.22;;
12212;SDS011;6169;44.158;22.788;2023-08-06T10:24:26;6.65;;;3.65;;
12212;SDS011;6169;44.158;22.788;2023-08-06T10:29:39;5.00;;;3.92;;
12212;SDS011;6169;44.158;22.788;2023-08-06T10:34:54;4.28;;;3.97;;
12212;SDS011;6169;44.158;22.788;2023-08-06T10:39:57;4.68;;;4.28;;
12212;SDS011;6169;44.158;22.788;2023-08-06T10:45:14;6.05;;;5.45;;
12212;SDS011;6169;44.158;22.788;2023-08-06T10:50:17;6.55;;;5.95;;
12212;SDS011;6169;44.158;22.788;2023-08-06T10:55:23;6.07;;;5.57;;
12212;SDS011;6169;44.158;22.788;2023-08-06T11:00:27;5.55;;;5.10;;
12212;SDS011;6169;44.158;22.788;2023-08-06T11:05:30;5.93;;;4.85;;
12212;SDS011;6169;44.158;22.788;2023-08-06T11:10:32;6.57;;;5.15;;
12212;SDS011;6169;44.158;22.788;2023-08-06T11:15:36;5.20;;;4.70;;
12212;SDS011;6169;44.158;22.788;2023-08-06T11:20:39;7.10;;;4.93;;
12212;SDS011;6169;44.158;22.788;2023-08-06T11:25:44;5.30;;;4.90;;
12212;SDS011;6169;44.158;22.788;2023-08-06T11:30:48;5.28;;;4.75;;
12212;SDS011;6169;44.158;22.788;2023-08-06T11:35:50;6.78;;;5.55;;
12212;SDS011;6169;44.158;22.788;2023-08-06T11:40:53;5.38;;;4.97;;
12212;SDS011;6169;44.158;22.788;2023-08-06T11:45:57;7.80;;;5.95;;
12212;SDS011;6169;44.158;22.788;2023-08-06T11:51:00;6.63;;;5.93;;
12212;SDS011;6169;44.158;22.788;2023-08-06T11:56:03;6.40;;;5.82;;
12212;SDS011;6169;44.158;22.788;2023-08-06T12:01:07;7.25;;;6.32;;
12212;SDS011;6169;44.158;22.788;2023-08-06T12:06:10;7.13;;;6.18;;
12212;SDS011;6169;44.158;22.788;2023-08-06T12:11:13;7.88;;;7.07;;
12212;SDS011;6169;44.158;22.788;2023-08-06T12:16:17;9.80;;;7.70;;
12212;SDS011;6169;44.158;22.788;2023-08-06T12:21:21;7.63;;;7.03;;
12212;SDS011;6169;44.158;22.788;2023-08-06T12:26:23;8.73;;;7.95;;
12212;SDS011;6169;44.158;22.788;2023-08-06T12:31:26;9.05;;;7.70;;
12212;SDS011;6169;44.158;22.788;2023-08-06T12:36:29;9.30;;;8.50;;
12212;SDS011;6169;44.158;22.788;2023-08-06T12:41:31;8.35;;;7.65;;
12212;SDS011;6169;44.158;22.788;2023-08-06T12:46:34;8.90;;;8.02;;
12212;SDS011;6169;44.158;22.788;2023-08-06T12:51:37;8.95;;;8.25;;
12212;SDS011;6169;44.158;22.788;2023-08-06T12:56:39;9.27;;;8.15;;
12212;SDS011;6169;44.158;22.788;2023-08-06T13:01:43;8.43;;;7.63;;
12212;SDS011;6169;44.158;22.788;2023-08-06T13:06:46;10.27;;;9.27;;
12212;SDS011;6169;44.158;22.788;2023-08-06T13:11:48;8.30;;;7.50;;
12212;SDS011;6169;44.158;22.788;2023-08-06T13:16:53;10.05;;;9.13;;
12212;SDS011;6169;44.158;22.788;2023-08-06T13:21:59;7.90;;;7.20;;
12212;SDS011;6169;44.158;22.788;2023-08-06T13:27:04;9.23;;;8.35;;
12212;SDS011;6169;44.158;22.788;2023-08-06T13:32:08;9.73;;;8.90;;
12212;SDS011;6169;44.158;22.788;2023-08-06T13:37:11;8.82;;;8.07;;
12212;SDS011;6169;44.158;22.788;2023-08-06T13:42:13;10.15;;;9.15;;
12212;SDS011;6169;44.158;22.788;2023-08-06T13:47:17;10.65;;;9.73;;
12212;SDS011;6169;44.158;22.788;2023-08-06T13:52:19;10.68;;;9.73;;
12212;SDS011;6169;44.158;22.788;2023-08-06T13:57:22;11.68;;;10.57;;
12212;SDS011;6169;44.158;22.788;2023-08-06T14:02:26;11.18;;;9.80;;
12212;SDS011;6169;44.158;22.788;2023-08-06T14:07:28;12.07;;;10.77;;
12212;SDS011;6169;44.158;22.788;2023-08-06T14:12:30;11.65;;;10.48;;
12212;SDS011;6169;44.158;22.788;2023-08-06T14:17:34;10.50;;;9.50;;
12212;SDS011;6169;44.158;22.788;2023-08-06T14:22:36;10.50;;;9.38;;
12212;SDS011;6169;44.158;22.788;2023-08-06T14:27:39;11.10;;;10.00;;
12212;SDS011;6169;44.158;22.788;2023-08-06T14:32:42;11.52;;;9.40;;
12212;SDS011;6169;44.158;22.788;2023-08-06T14:37:45;10.13;;;8.77;;
12212;SDS011;6169;44.158;22.788;2023-08-06T14:42:47;12.32;;;11.07;;
12212;SDS011;6169;44.158;22.788;2023-08-06T14:47:51;13.25;;;10.20;;
12212;SDS011;6169;44.158;22.788;2023-08-06T14:52:53;10.38;;;9.35;;
12212;SDS011;6169;44.158;22.788;2023-08-06T14:57:55;10.70;;;9.60;;
12212;SDS011;6169;44.158;22.788;2023-08-06T15:02:59;10.10;;;8.63;;
12212;SDS011;6169;44.158;22.788;2023-08-06T15:08:01;9.38;;;8.52;;
12212;SDS011;6169;44.158;22.788;2023-08-06T15:13:03;9.30;;;8.40;;
12212;SDS011;6169;44.158;22.788;2023-08-06T15:18:07;10.07;;;8.50;;
12212;SDS011;6169;44.158;22.788;2023-08-06T15:23:09;10.68;;;9.27;;
12212;SDS011;6169;44.158;22.788;2023-08-06T15:28:11;9.95;;;8.63;;
12212;SDS011;6169;44.158;22.788;2023-08-06T15:33:15;11.77;;;9.80;;
12212;SDS011;6169;44.158;22.788;2023-08-06T15:38:17;10.82;;;9.73;;
12212;SDS011;6169;44.158;22.788;2023-08-06T15:43:19;11.23;;;9.18;;
12212;SDS011;6169;44.158;22.788;2023-08-06T15:48:23;10.95;;;9.45;;
12212;SDS011;6169;44.158;22.788;2023-08-06T15:53:25;11.93;;;9.45;;
12212;SDS011;6169;44.158;22.788;2023-08-06T15:58:28;9.30;;;8.40;;
12212;SDS011;6169;44.158;22.788;2023-08-06T16:03:33;9.20;;;8.10;;
12212;SDS011;6169;44.158;22.788;2023-08-06T16:08:35;9.70;;;8.23;;
12212;SDS011;6169;44.158;22.788;2023-08-06T16:13:38;9.02;;;7.82;;
12212;SDS011;6169;44.158;22.788;2023-08-06T16:18:42;8.98;;;8.10;;
12212;SDS011;6169;44.158;22.788;2023-08-06T16:23:44;9.55;;;8.63;;
12212;SDS011;6169;44.158;22.788;2023-08-06T16:28:46;9.45;;;8.55;;
12212;SDS011;6169;44.158;22.788;2023-08-06T16:33:50;8.60;;;7.80;;
12212;SDS011;6169;44.158;22.788;2023-08-06T16:38:52;9.65;;;8.43;;
12212;SDS011;6169;44.158;22.788;2023-08-06T16:43:56;10.98;;;8.48;;
12212;SDS011;6169;44.158;22.788;2023-08-06T16:49:00;9.98;;;8.43;;
12212;SDS011;6169;44.158;22.788;2023-08-06T16:54:03;8.32;;;7.40;;
12212;SDS011;6169;44.158;22.788;2023-08-06T16:59:05;14.57;;;9.68;;
12212;SDS011;6169;44.158;22.788;2023-08-06T17:04:09;9.23;;;8.23;;
12212;SDS011;6169;44.158;22.788;2023-08-06T17:09:11;9.73;;;8.52;;
12212;SDS011;6169;44.158;22.788;2023-08-06T17:14:14;9.02;;;7.47;;
12212;SDS011;6169;44.158;22.788;2023-08-06T17:19:17;9.40;;;8.40;;
12212;SDS011;6169;44.158;22.788;2023-08-06T17:24:20;10.23;;;7.90;;
12212;SDS011;6169;44.158;22.788;2023-08-06T17:29:22;8.32;;;7.53;;
12212;SDS011;6169;44.158;22.788;2023-08-06T17:34:26;8.85;;;7.88;;
12212;SDS011;6169;44.158;22.788;2023-08-06T17:39:29;10.63;;;8.15;;
12212;SDS011;6169;44.158;22.788;2023-08-06T17:44:31;9.20;;;8.30;;
12212;SDS011;6169;44.158;22.788;2023-08-06T17:49:35;9.25;;;7.95;;
12212;SDS011;6169;44.158;22.788;2023-08-06T17:54:37;7.95;;;7.15;;
12212;SDS011;6169;44.158;22.788;2023-08-06T17:59:40;7.60;;;6.90;;
12212;SDS011;6169;44.158;22.788;2023-08-06T18:04:44;6.97;;;6.32;;
12212;SDS011;6169;44.158;22.788;2023-08-06T18:09:46;5.28;;;4.65;;
12212;SDS011;6169;44.158;22.788;2023-08-06T18:14:48;3.42;;;2.65;;
12212;SDS011;6169;44.158;22.788;2023-08-06T18:19:53;2.22;;;2.10;;
12212;SDS011;6169;44.158;22.788;2023-08-06T18:24:55;4.07;;;2.90;;
12212;SDS011;6169;44.158;22.788;2023-08-06T18:29:59;3.35;;;2.28;;
12212;SDS011;6169;44.158;22.788;2023-08-06T18:35:03;4.15;;;3.72;;
12212;SDS011;6169;44.158;22.788;2023-08-06T18:40:06;3.05;;;2.80;;
12212;SDS011;6169;44.158;22.788;2023-08-06T18:45:09;2.78;;;2.58;;
12212;SDS011;6169;44.158;22.788;2023-08-06T18:50:13;3.17;;;2.90;;
12212;SDS011;6169;44.158;22.788;2023-08-06T18:55:16;3.05;;;2.67;;
12212;SDS011;6169;44.158;22.788;2023-08-06T19:00:19;4.13;;;2.85;;
12212;SDS011;6169;44.158;22.788;2023-08-06T19:05:24;3.28;;;2.97;;
12212;SDS011;6169;44.158;22.788;2023-08-06T19:10:27;1.45;;;1.35;;
12212;SDS011;6169;44.158;22.788;2023-08-06T19:15:29;1.60;;;1.50;;
12212;SDS011;6169;44.158;22.788;2023-08-06T19:20:33;1.60;;;1.30;;
12212;SDS011;6169;44.158;22.788;2023-08-06T19:25:40;2.38;;;1.15;;
12212;SDS011;6169;44.158;22.788;2023-08-06T19:30:44;1.20;;;1.10;;
12212;SDS011;6169;44.158;22.788;2023-08-06T19:36:00;1.38;;;1.27;;
12212;SDS011;6169;44.158;22.788;2023-08-06T19:41:02;1.10;;;0.95;;
12212;SDS011;6169;44.158;22.788;2023-08-06T19:46:06;1.13;;;1.08;;
12212;SDS011;6169;44.158;22.788;2023-08-06T19:51:10;1.55;;;1.20;;
12212;SDS011;6169;44.158;22.788;2023-08-06T19:56:12;1.40;;;1.33;;
12212;SDS011;6169;44.158;22.788;2023-08-06T20:01:15;1.60;;;1.17;;
12212;SDS011;6169;44.158;22.788;2023-08-06T20:06:18;1.52;;;1.42;;
12212;SDS011;6169;44.158;22.788;2023-08-06T20:11:26;2.63;;;2.42;;
12212;SDS011;6169;44.158;22.788;2023-08-06T20:16:28;2.10;;;1.92;;
12212;SDS011;6169;44.158;22.788;2023-08-06T20:21:32;2.05;;;1.95;;
12212;SDS011;6169;44.158;22.788;2023-08-06T20:26:34;1.45;;;1.35;;
12212;SDS011;6169;44.158;22.788;2023-08-06T20:31:36;0.85;;;0.80;;
12212;SDS011;6169;44.158;22.788;2023-08-06T20:36:40;2.83;;;1.20;;
12212;SDS011;6169;44.158;22.788;2023-08-06T20:41:42;0.93;;;0.90;;
12212;SDS011;6169;44.158;22.788;2023-08-06T20:46:44;2.05;;;1.45;;
12212;SDS011;6169;44.158;22.788;2023-08-06T20:51:47;1.02;;;1.02;;
12212;SDS011;6169;44.158;22.788;2023-08-06T20:56:49;0.93;;;0.93;;
12212;SDS011;6169;44.158;22.788;2023-08-06T21:01:52;3.47;;;1.05;;
12212;SDS011;6169;44.158;22.788;2023-08-06T21:06:57;1.17;;;0.98;;
12212;SDS011;6169;44.158;22.788;2023-08-06T21:11:59;1.83;;;0.77;;
12212;SDS011;6169;44.158;22.788;2023-08-06T21:17:01;1.40;;;1.30;;
12212;SDS011;6169;44.158;22.788;2023-08-06T21:22:05;1.33;;;1.33;;
12212;SDS011;6169;44.158;22.788;2023-08-06T21:27:08;2.42;;;2.22;;
12212;SDS011;6169;44.158;22.788;2023-08-06T21:32:11;2.80;;;1.95;;
12212;SDS011;6169;44.158;22.788;2023-08-06T21:37:14;3.08;;;2.88;;
12212;SDS011;6169;44.158;22.788;2023-08-06T21:42:16;3.10;;;2.90;;
12212;SDS011;6169;44.158;22.788;2023-08-06T21:47:18;4.38;;;3.97;;
12212;SDS011;6169;44.158;22.788;2023-08-06T21:52:22;6.22;;;5.15;;
12212;SDS011;6169;44.158;22.788;2023-08-06T21:57:24;5.72;;;5.10;;
12212;SDS011;6169;44.158;22.788;2023-08-06T22:02:26;5.32;;;4.82;;
12212;SDS011;6169;44.158;22.788;2023-08-06T22:07:30;5.38;;;4.88;;
12212;SDS011;6169;44.158;22.788;2023-08-06T22:12:32;5.18;;;4.78;;
12212;SDS011;6169;44.158;22.788;2023-08-06T22:17:34;6.25;;;5.63;;
12212;SDS011;6169;44.158;22.788;2023-08-06T22:22:38;5.70;;;5.22;;
12212;SDS011;6169;44.158;22.788;2023-08-06T22:27:40;5.50;;;5.00;;
12212;SDS011;6169;44.158;22.788;2023-08-06T22:32:42;4.97;;;4.55;;
12212;SDS011;6169;44.158;22.788;2023-08-06T22:37:46;6.72;;;4.93;;
12212;SDS011;6169;44.158;22.788;2023-08-06T22:42:49;5.25;;;4.85;;
12212;SDS011;6169;44.158;22.788;2023-08-06T22:47:51;5.13;;;4.63;;
12212;SDS011;6169;44.158;22.788;2023-08-06T22:52:54;5.22;;;4.72;;
12212;SDS011;6169;44.158;22.788;2023-08-06T22:57:57;4.82;;;4.43;;
12212;SDS011;6169;44.158;22.788;2023-08-06T23:02:59;4.97;;;4.47;;
12212;SDS011;6169;44.158;22.788;2023-08-06T23:08:03;4.97;;;4.57;;
12212;SDS011;6169;44.158;22.788;2023-08-06T23:13:05;3.70;;;3.40;;
12212;SDS011;6169;44.158;22.788;2023-08-06T23:18:08;4.05;;;3.75;;
12212;SDS011;6169;44.158;22.788;2023-08-06T23:23:11;2.30;;;2.13;;
12212;SDS011;6169;44.158;22.788;2023-08-06T23:28:13;3.33;;;1.80;;
12212;SDS011;6169;44.158;22.788;2023-08-06T23:33:16;1.40;;;1.30;;
12212;SDS011;6169;44.158;22.788;2023-08-06T23:38:19;2.53;;;2.08;;
12212;SDS011;6169;44.158;22.788;2023-08-06T23:43:21;2.08;;;1.75;;
12212;SDS011;6169;44.158;22.788;2023-08-06T23:48:24;1.60;;;1.50;;
12212;SDS011;6169;44.158;22.788;2023-08-06T23:53:27;2.13;;;2.00;;
12212;SDS011;6169;44.158;22.788;2023-08-06T23:58:29;2.55;;;2.10;;
